createdAt,value
2023-04-20T00:00:11.786Z,101275.22
2023-04-20T00:02:43.247Z,101275.58
2023-04-20T00:05:12.954Z,101272.41
2023-04-20T00:07:41.805Z,101267.67
2023-04-20T00:10:10.319Z,101268.91
2023-04-20T00:12:39.074Z,101272.41
2023-04-20T00:15:07.776Z,101271.84
2023-04-20T00:17:38.767Z,101278.14
2023-04-20T00:20:09.271Z,101280.23
2023-04-20T00:22:38.739Z,101281.42
2023-04-20T00:25:07.411Z,101280.69
2023-04-20T00:27:36.321Z,101282.30
2023-04-20T00:30:04.815Z,101289.71
2023-04-20T00:32:33.912Z,101298.50
2023-04-20T00:35:02.340Z,101300.45
2023-04-20T00:37:31.229Z,101299.77
2023-04-20T00:39:59.590Z,101306.06
2023-04-20T00:42:27.772Z,101305.00
2023-04-20T00:44:56.016Z,101300.41
2023-04-20T00:47:24.344Z,101302.87
2023-04-20T00:49:53.357Z,101312.34
2023-04-20T00:52:21.705Z,101319.32
2023-04-20T00:54:50.035Z,101323.32
2023-04-20T00:57:19.927Z,101326.31
2023-04-20T00:59:48.231Z,101324.69
2023-04-20T01:02:16.666Z,101329.95
2023-04-20T01:04:47.122Z,101326.08
2023-04-20T01:07:16.298Z,101325.52
2023-04-20T01:09:44.628Z,101333.78
2023-04-20T01:12:12.977Z,101341.49
2023-04-20T01:14:41.395Z,101339.34
2023-04-20T01:17:09.836Z,101335.61
2023-04-20T01:19:38.080Z,101338.40
2023-04-20T01:22:06.294Z,101338.02
2023-04-20T01:24:34.966Z,101327.83
2023-04-20T01:27:03.247Z,101321.67
2023-04-20T01:29:31.996Z,101326.58
2023-04-20T01:32:00.392Z,101330.40
2023-04-20T01:34:28.721Z,101330.20
2023-04-20T01:36:56.984Z,101322.64
2023-04-20T01:39:25.254Z,101322.27
2023-04-20T01:41:56.859Z,101325.27
2023-04-20T01:44:26.238Z,101319.77
2023-04-20T01:46:55.138Z,101313.06
2023-04-20T01:49:23.369Z,101307.25
2023-04-20T01:51:53.507Z,101310.56
2023-04-20T01:54:23.135Z,101317.02
2023-04-20T01:56:51.300Z,101324.70
2023-04-20T01:59:19.866Z,101331.31
2023-04-20T02:01:48.360Z,101333.53
2023-04-20T02:04:16.715Z,101338.76
2023-04-20T02:06:45.125Z,101333.95
2023-04-20T02:09:13.376Z,101337.42
2023-04-20T02:11:41.746Z,101341.76
2023-04-20T02:14:10.031Z,101345.80
2023-04-20T02:16:38.375Z,101352.30
2023-04-20T02:19:07.042Z,101364.05
2023-04-20T02:21:36.051Z,101372.11
2023-04-20T02:24:04.974Z,101368.06
2023-04-20T02:26:34.417Z,101372.80
2023-04-20T02:29:02.679Z,101368.02
2023-04-20T02:31:31.216Z,101369.73
2023-04-20T02:33:59.674Z,101367.63
2023-04-20T02:36:29.536Z,101349.83
2023-04-20T02:38:57.854Z,101333.98
2023-04-20T02:41:26.072Z,101335.59
2023-04-20T02:43:54.309Z,101338.08
2023-04-20T02:46:23.044Z,101343.17
2023-04-20T02:48:51.405Z,101343.36
2023-04-20T02:51:19.962Z,101350.02
2023-04-20T02:53:48.126Z,101350.36
2023-04-20T02:56:30.319Z,101349.99
2023-04-20T02:59:02.665Z,101347.88
2023-04-20T03:01:49.381Z,101347.70
2023-04-20T03:04:22.400Z,101342.60
2023-04-20T03:07:15.347Z,101350.02
2023-04-20T03:09:45.013Z,101356.55
2023-04-20T03:12:26.871Z,101366.27
2023-04-20T03:15:13.840Z,101367.02
2023-04-20T03:17:56.604Z,101367.92
2023-04-20T03:20:25.528Z,101366.19
2023-04-20T03:22:54.455Z,101371.65
2023-04-20T03:25:24.630Z,101373.39
2023-04-20T03:27:56.241Z,101377.72
2023-04-20T03:30:24.537Z,101384.15
2023-04-20T03:33:01.111Z,101387.77
2023-04-20T03:35:30.215Z,101387.77
2023-04-20T03:37:58.403Z,101391.27
2023-04-20T03:40:26.767Z,101386.83
2023-04-20T03:42:55.071Z,101390.48
2023-04-20T03:45:23.367Z,101392.92
2023-04-20T03:47:51.650Z,101398.88
2023-04-20T03:50:19.900Z,101403.40
2023-04-20T03:52:48.436Z,101406.34
2023-04-20T03:55:16.917Z,101410.39
2023-04-20T03:57:49.192Z,101416.35
2023-04-20T04:00:17.660Z,101420.01
2023-04-20T04:02:48.773Z,101426.44
2023-04-20T04:08:14.825Z,101439.42
2023-04-20T04:10:43.194Z,101446.89
2023-04-20T04:15:59.350Z,101460.95
2023-04-20T04:18:32.709Z,101463.89
2023-04-20T04:21:04.987Z,101470.87
2023-04-20T04:23:35.864Z,101471.17
2023-04-20T04:26:25.047Z,101477.12
2023-04-20T04:28:53.979Z,101474.59
2023-04-20T04:31:23.846Z,101480.01
2023-04-20T04:33:52.676Z,101483.14
2023-04-20T04:36:33.547Z,101489.06
2023-04-20T04:39:02.594Z,101490.65
2023-04-20T04:41:31.311Z,101490.10
2023-04-20T04:44:09.071Z,101491.65
2023-04-20T04:46:37.413Z,101497.75
2023-04-20T04:49:06.037Z,101501.78
2023-04-20T04:51:34.343Z,101502.13
2023-04-20T04:54:02.650Z,101501.39
2023-04-20T04:56:31.513Z,101503.67
2023-04-20T04:59:00.151Z,101503.30
2023-04-20T05:01:28.450Z,101502.43
2023-04-20T05:03:56.859Z,101500.15
2023-04-20T05:06:25.755Z,101505.25
2023-04-20T05:08:53.972Z,101504.70
2023-04-20T05:11:22.320Z,101507.27
2023-04-20T05:13:51.133Z,101513.38
2023-04-20T05:16:19.355Z,101516.67
2023-04-20T05:18:47.734Z,101518.75
2023-04-20T05:21:16.066Z,101519.44
2023-04-20T05:23:44.424Z,101519.77
2023-04-20T05:26:12.743Z,101526.81
2023-04-20T05:28:41.084Z,101534.55
2023-04-20T05:31:09.683Z,101535.75
2023-04-20T05:33:37.955Z,101542.09
2023-04-20T05:36:09.312Z,101546.65
2023-04-20T05:41:14.794Z,101560.09
2023-04-20T05:43:43.139Z,101594.31
2023-04-20T05:46:11.594Z,101589.02
2023-04-20T05:48:39.948Z,101586.22
2023-04-20T05:51:08.353Z,101589.19
2023-04-20T05:53:37.067Z,101591.84
2023-04-20T05:56:06.462Z,101594.66
2023-04-20T05:58:34.871Z,101595.20
2023-04-20T06:01:04.446Z,101598.40
2023-04-20T06:03:33.632Z,101598.41
2023-04-20T06:06:02.012Z,101598.59
2023-04-20T06:08:30.388Z,101600.02
2023-04-20T06:10:58.873Z,101599.89
2023-04-20T06:13:27.213Z,101599.75
2023-04-20T06:15:55.583Z,101600.14
2023-04-20T06:18:24.571Z,101596.61
2023-04-20T06:20:52.979Z,101599.78
2023-04-20T06:23:21.481Z,101602.95
2023-04-20T06:25:49.862Z,101603.14
2023-04-20T06:28:18.376Z,101605.95
2023-04-20T06:30:47.095Z,101607.55
2023-04-20T06:33:17.574Z,101607.95
2023-04-20T06:35:45.833Z,101607.61
2023-04-20T06:38:14.123Z,101609.39
2023-04-20T06:40:42.354Z,101613.11
2023-04-20T06:43:10.591Z,101614.53
2023-04-20T06:45:38.803Z,101618.93
2023-04-20T06:48:14.400Z,101619.95
2023-04-20T06:50:52.198Z,101628.39
2023-04-20T06:53:20.437Z,101624.69
2023-04-20T06:55:48.595Z,101622.58
2023-04-20T06:58:16.993Z,101619.58
2023-04-20T07:00:45.993Z,101593.00
2023-04-20T07:03:14.451Z,101595.80
2023-04-20T07:05:42.956Z,101614.30
2023-04-20T07:08:11.298Z,101631.04
2023-04-20T07:10:39.786Z,101635.09
2023-04-20T07:13:08.032Z,101638.61
2023-04-20T07:15:36.407Z,101644.73
2023-04-20T07:18:04.674Z,101649.45
2023-04-20T07:20:33.116Z,101655.27
2023-04-20T07:23:01.319Z,101664.75
2023-04-20T07:25:31.713Z,101666.51
2023-04-20T07:27:59.900Z,101671.75
2023-04-20T07:30:28.198Z,101667.70
2023-04-20T07:32:56.756Z,101672.10
2023-04-20T07:35:25.077Z,101673.66
2023-04-20T07:37:53.417Z,101673.12
2023-04-20T07:40:21.863Z,101678.02
2023-04-20T07:42:50.443Z,101682.70
2023-04-20T07:45:19.111Z,101688.80
2023-04-20T07:47:51.653Z,101692.50
2023-04-20T07:50:20.154Z,101696.86
2023-04-20T07:52:48.718Z,101699.91
2023-04-20T07:55:17.589Z,101706.70
2023-04-20T07:57:46.086Z,101713.54
2023-04-20T08:00:15.390Z,101718.23
2023-04-20T08:02:46.610Z,101719.42
2023-04-20T08:05:15.364Z,101723.59
2023-04-20T08:07:44.375Z,101734.08
2023-04-20T08:10:12.861Z,101740.86
2023-04-20T08:12:41.749Z,101746.92
2023-04-20T08:15:11.079Z,101752.80
2023-04-20T08:17:40.025Z,101760.98
2023-04-20T08:20:08.499Z,101772.77
2023-04-20T08:22:38.056Z,101783.14
2023-04-20T08:25:06.614Z,101796.11
2023-04-20T08:27:35.371Z,101812.30
2023-04-20T08:30:06.970Z,101826.14
2023-04-20T08:32:35.650Z,101848.84
2023-04-20T08:35:05.272Z,101858.75
2023-04-20T08:37:34.638Z,101869.31
2023-04-20T08:40:03.936Z,101881.61
2023-04-20T08:42:33.093Z,101900.48
2023-04-20T08:45:01.374Z,101917.24
2023-04-20T08:47:29.952Z,101928.11
2023-04-20T08:49:58.769Z,101922.92
2023-04-20T08:52:27.566Z,101922.59
2023-04-20T08:54:57.315Z,101927.18
2023-04-20T08:57:26.622Z,101926.24
2023-04-20T08:59:55.110Z,101932.16
2023-04-20T09:02:23.506Z,101939.65
2023-04-20T09:05:02.631Z,101944.15
2023-04-20T09:07:32.328Z,101947.45
2023-04-20T09:10:01.139Z,101951.02
2023-04-20T09:12:42.976Z,101954.98
2023-04-20T09:15:11.623Z,101955.92
2023-04-20T09:17:41.506Z,101953.15
2023-04-20T09:20:11.621Z,101949.15
2023-04-20T09:22:41.063Z,101941.26
2023-04-20T09:25:16.239Z,101937.58
2023-04-20T09:27:55.564Z,101933.70
2023-04-20T09:30:23.958Z,101926.89
2023-04-20T09:33:02.805Z,101915.17
2023-04-20T09:35:31.579Z,101906.82
2023-04-20T09:38:00.016Z,101891.98
2023-04-20T09:40:28.575Z,101879.69
2023-04-20T09:42:59.396Z,101863.55
2023-04-20T09:45:27.728Z,101844.83
2023-04-20T09:47:56.394Z,101824.29
2023-04-20T09:50:32.054Z,101811.42
2023-04-20T09:53:06.921Z,101802.91
2023-04-20T09:55:36.119Z,101787.23
2023-04-20T09:58:05.105Z,101773.58
2023-04-20T10:00:34.030Z,101778.45
2023-04-20T10:03:02.459Z,101777.38
2023-04-20T10:05:35.964Z,101768.98
2023-04-20T10:08:04.300Z,101763.77
2023-04-20T10:10:49.822Z,101749.17
2023-04-20T10:13:20.765Z,101749.94
2023-04-20T10:15:49.265Z,101749.70
2023-04-20T10:18:24.059Z,101755.98
2023-04-20T10:20:52.973Z,101761.14
2023-04-20T10:23:21.542Z,101776.94
2023-04-20T10:25:57.999Z,101798.11
2023-04-20T10:28:27.104Z,101821.23
2023-04-20T10:30:55.423Z,101833.77
2023-04-20T10:33:24.154Z,101842.52
2023-04-20T10:35:55.315Z,101841.77
2023-04-20T10:38:34.619Z,101832.66
2023-04-20T10:41:06.880Z,101821.48
2023-04-20T10:43:36.275Z,101812.27
2023-04-20T10:46:20.172Z,101803.38
2023-04-20T10:48:58.598Z,101801.88
2023-04-20T10:51:26.834Z,101795.40
2023-04-20T10:54:01.958Z,101796.98
2023-04-20T10:56:43.259Z,101794.77
2023-04-20T10:59:16.782Z,101782.06
2023-04-20T11:01:45.672Z,101773.47
2023-04-20T11:04:16.179Z,101773.41
2023-04-20T11:06:47.244Z,101779.39
2023-04-20T11:09:28.666Z,101795.59
2023-04-20T11:12:14.900Z,101790.02
2023-04-20T11:14:54.332Z,101797.42
2023-04-20T11:17:38.448Z,101793.67
2023-04-20T11:20:12.349Z,101793.56
2023-04-20T11:22:41.662Z,101801.30
2023-04-20T11:25:11.630Z,101793.50
2023-04-20T11:27:40.197Z,101793.69
2023-04-20T11:30:10.163Z,101791.53
2023-04-20T11:32:39.479Z,101788.68
2023-04-20T11:35:09.617Z,101794.27
2023-04-20T11:37:51.700Z,101804.90
2023-04-20T11:40:20.426Z,101815.23
2023-04-20T11:42:49.065Z,101814.96
2023-04-20T11:45:18.149Z,101823.19
2023-04-20T11:47:47.579Z,101830.18
2023-04-20T11:50:16.259Z,101831.61
2023-04-20T11:52:44.560Z,101832.32
2023-04-20T11:55:12.903Z,101838.14
2023-04-20T11:57:41.181Z,101838.38
2023-04-20T12:00:10.155Z,101827.90
2023-04-20T12:02:44.279Z,101812.73
2023-04-20T12:05:12.955Z,101798.54
2023-04-20T12:07:42.130Z,101782.84
2023-04-20T12:10:12.163Z,101767.80
2023-04-20T12:12:42.477Z,101754.08
2023-04-20T12:15:10.994Z,101739.33
2023-04-20T12:17:39.621Z,101725.45
2023-04-20T12:20:11.569Z,101707.09
2023-04-20T12:22:40.165Z,101690.53
2023-04-20T12:25:08.653Z,101671.72
2023-04-20T12:27:37.790Z,101651.97
2023-04-20T12:30:07.054Z,101637.67
2023-04-20T12:32:35.729Z,101618.92
2023-04-20T12:35:04.133Z,101602.13
2023-04-20T12:37:32.602Z,101588.77
2023-04-20T12:40:00.940Z,101581.33
2023-04-20T12:42:29.383Z,101564.08
2023-04-20T12:44:57.587Z,101554.55
2023-04-20T12:47:25.932Z,101554.41
2023-04-20T12:49:55.290Z,101548.98
2023-04-20T12:52:23.535Z,101545.46
2023-04-20T12:54:51.708Z,101546.17
2023-04-20T12:57:20.461Z,101540.79
2023-04-20T12:59:51.625Z,101523.17
2023-04-20T13:02:19.976Z,101509.56
2023-04-20T13:04:48.301Z,101495.11
2023-04-20T13:07:16.847Z,101481.61
2023-04-20T13:09:45.189Z,101475.25
2023-04-20T13:12:13.576Z,101464.23
2023-04-20T13:14:42.057Z,101453.33
2023-04-20T13:17:10.266Z,101445.33
2023-04-20T13:19:38.427Z,101442.42
2023-04-20T13:22:06.780Z,101438.57
2023-04-20T13:24:35.369Z,101431.59
2023-04-20T13:27:03.716Z,101426.06
2023-04-20T13:29:33.006Z,101422.10
2023-04-20T13:32:01.425Z,101417.53
2023-04-20T13:34:31.086Z,101415.22
2023-04-20T13:36:59.263Z,101411.08
2023-04-20T13:39:28.045Z,101419.13
2023-04-20T13:41:57.013Z,101415.64
2023-04-20T13:44:25.503Z,101408.38
2023-04-20T13:46:53.976Z,101407.41
2023-04-20T13:49:22.981Z,101415.67
2023-04-20T13:51:51.530Z,101422.66
2023-04-20T13:54:19.901Z,101431.30
2023-04-20T13:56:48.450Z,101430.58
2023-04-20T13:59:16.781Z,101425.38
2023-04-20T14:01:45.210Z,101417.72
2023-04-20T14:04:17.072Z,101420.83
2023-04-20T14:06:46.289Z,101419.70
2023-04-20T14:09:14.666Z,101426.52
2023-04-20T14:11:43.968Z,101428.66
2023-04-20T14:14:12.289Z,101435.78
2023-04-20T14:16:48.259Z,101436.26
2023-04-20T14:19:16.636Z,101445.71
2023-04-20T14:21:46.763Z,101456.99
2023-04-20T14:24:15.123Z,101459.70
2023-04-20T14:26:44.101Z,101466.16
2023-04-20T14:29:13.025Z,101466.98
2023-04-20T14:31:41.498Z,101470.89
2023-04-20T14:34:09.835Z,101460.05
2023-04-20T14:36:38.131Z,101457.33
2023-04-20T14:39:06.356Z,101451.55
2023-04-20T14:41:35.324Z,101448.27
2023-04-20T14:44:04.302Z,101439.76
2023-04-20T14:46:33.152Z,101425.45
2023-04-20T14:49:01.495Z,101416.71
2023-04-20T14:51:30.032Z,101401.63
2023-04-20T14:53:58.602Z,101389.62
2023-04-20T14:56:27.084Z,101387.87
2023-04-20T14:58:57.430Z,101386.78
2023-04-20T15:01:25.973Z,101389.92
2023-04-20T15:03:54.602Z,101386.27
2023-04-20T15:06:23.247Z,101388.05
2023-04-20T15:08:54.834Z,101386.84
2023-04-20T15:11:23.226Z,101385.86
2023-04-20T15:13:52.779Z,101382.30
2023-04-20T15:16:21.150Z,101373.42
2023-04-20T15:18:52.074Z,101375.84
2023-04-20T15:21:23.665Z,101371.20
2023-04-20T15:23:51.943Z,101369.95
2023-04-20T15:26:20.173Z,101366.48
2023-04-20T15:28:50.104Z,101368.02
2023-04-20T15:31:21.062Z,101368.23
2023-04-20T15:33:49.446Z,101363.39
2023-04-20T15:36:18.271Z,101365.84
2023-04-20T15:38:47.178Z,101367.78
2023-04-20T15:41:16.571Z,101374.59
2023-04-20T15:43:44.936Z,101380.20
2023-04-20T15:46:13.203Z,101383.38
2023-04-20T15:48:41.537Z,101387.25
2023-04-20T15:51:09.731Z,101381.01
2023-04-20T15:53:38.430Z,101383.51
2023-04-20T15:56:07.101Z,101388.30
2023-04-20T15:58:37.269Z,101382.90
2023-04-20T16:08:44.289Z,101400.90
2023-04-20T16:11:12.540Z,101433.45
2023-04-20T16:13:40.842Z,101424.66
2023-04-20T16:16:09.137Z,101415.15
2023-04-20T16:18:37.422Z,101409.90
2023-04-20T16:21:05.719Z,101400.28
2023-04-20T16:23:33.997Z,101392.95
2023-04-20T16:26:02.293Z,101387.90
2023-04-20T16:28:31.076Z,101383.70
2023-04-20T16:31:00.302Z,101381.97
2023-04-20T16:33:30.662Z,101386.06
2023-04-20T16:35:59.596Z,101386.97
2023-04-20T16:38:27.846Z,101394.35
2023-04-20T16:40:56.178Z,101395.39
2023-04-20T16:43:24.564Z,101395.91
2023-04-20T16:45:52.949Z,101402.25
2023-04-20T16:48:21.776Z,101403.48
2023-04-20T16:50:49.996Z,101407.01
2023-04-20T16:53:18.178Z,101416.71
2023-04-20T16:55:46.520Z,101418.11
2023-04-20T16:58:14.798Z,101420.77
2023-04-20T17:00:43.578Z,101418.66
2023-04-20T17:03:13.732Z,101419.40
2023-04-20T17:05:42.823Z,101418.38
2023-04-20T17:08:11.507Z,101420.87
2023-04-20T17:10:40.315Z,101424.63
2023-04-20T17:13:08.581Z,101427.50
2023-04-20T17:15:37.274Z,101433.58
2023-04-20T17:18:07.113Z,101433.09
2023-04-20T17:20:35.777Z,101442.06
2023-04-20T17:23:04.257Z,101454.55
2023-04-20T17:25:33.439Z,101458.04
2023-04-20T17:28:02.961Z,101456.63
2023-04-20T17:30:31.770Z,101456.98
2023-04-20T17:33:01.984Z,101461.20
2023-04-20T17:35:30.854Z,101463.13
2023-04-20T17:38:00.104Z,101469.42
2023-04-20T17:40:28.470Z,101476.13
2023-04-20T17:42:56.709Z,101475.62
2023-04-20T17:45:24.949Z,101484.25
2023-04-20T17:47:53.886Z,101486.36
2023-04-20T17:50:23.343Z,101491.11
2023-04-20T17:52:51.900Z,101495.66
2023-04-20T17:55:20.469Z,101501.62
2023-04-20T17:59:00.422Z,101499.65
2023-04-20T18:01:29.011Z,101542.69
2023-04-20T18:03:57.601Z,101538.48
2023-04-20T18:06:26.450Z,101536.39
2023-04-20T18:08:56.540Z,101529.75
2023-04-20T18:11:25.107Z,101530.66
2023-04-20T18:13:55.103Z,101530.68
2023-04-20T18:16:23.552Z,101534.73
2023-04-20T18:18:52.919Z,101534.76
2023-04-20T18:21:21.747Z,101534.81
2023-04-20T18:23:50.303Z,101542.40
2023-04-20T18:26:18.796Z,101551.93
2023-04-20T18:28:47.594Z,101554.95
2023-04-20T18:31:16.065Z,101557.08
2023-04-20T18:33:44.372Z,101563.78
2023-04-20T18:36:12.781Z,101570.14
2023-04-20T18:38:41.635Z,101579.32
2023-04-20T18:41:10.442Z,101593.25
2023-04-20T18:43:39.551Z,101601.23
2023-04-20T18:46:08.850Z,101608.55
2023-04-20T18:48:37.308Z,101606.34
2023-04-20T18:51:06.362Z,101601.70
2023-04-20T18:53:35.130Z,101598.14
2023-04-20T18:56:03.712Z,101605.79
2023-04-20T18:58:32.138Z,101615.48
2023-04-20T19:01:03.676Z,101622.54
2023-04-20T19:03:32.429Z,101630.34
2023-04-20T19:06:01.111Z,101630.02
2023-04-20T19:08:29.645Z,101636.41
2023-04-20T19:10:59.232Z,101639.10
2023-04-20T19:13:28.272Z,101643.17
2023-04-20T19:15:59.408Z,101642.17
2023-04-20T19:18:28.070Z,101646.28
2023-04-20T19:20:56.356Z,101648.63
2023-04-20T19:23:24.643Z,101648.13
2023-04-20T19:25:53.021Z,101655.17
2023-04-20T19:28:23.471Z,101655.21
2023-04-20T19:30:53.142Z,101656.84
2023-04-20T19:33:21.447Z,101656.36
2023-04-20T19:35:51.161Z,101661.29
2023-04-20T19:38:20.324Z,101668.85
2023-04-20T19:40:49.432Z,101669.95
2023-04-20T19:43:19.868Z,101670.67
2023-04-20T19:45:48.166Z,101673.34
2023-04-20T19:48:16.573Z,101678.14
2023-04-20T19:50:44.769Z,101682.92
2023-04-20T19:53:13.194Z,101683.45
2023-04-20T19:55:41.503Z,101686.98
2023-04-20T19:58:11.089Z,101690.88
2023-04-20T20:00:39.344Z,101691.08
2023-04-20T20:03:10.343Z,101690.79
2023-04-20T20:05:38.902Z,101695.38
2023-04-20T20:08:07.091Z,101697.33
2023-04-20T20:10:35.955Z,101701.08
2023-04-20T20:13:04.270Z,101695.33
2023-04-20T20:15:32.597Z,101693.42
2023-04-20T20:18:01.036Z,101695.89
2023-04-20T20:20:32.569Z,101697.84
2023-04-20T20:23:00.845Z,101703.29
2023-04-20T20:25:29.466Z,101709.45
2023-04-20T20:27:57.866Z,101712.08
2023-04-20T20:30:26.189Z,101712.77
2023-04-20T20:32:54.667Z,101714.38
2023-04-20T20:35:22.932Z,101709.83
2023-04-20T20:37:51.128Z,101712.52
2023-04-20T20:40:19.512Z,101717.98
2023-04-20T20:42:48.179Z,101721.50
2023-04-20T20:45:16.535Z,101724.33
2023-04-20T20:47:45.390Z,101722.92
2023-04-20T20:50:14.687Z,101723.33
2023-04-20T20:52:42.963Z,101723.70
2023-04-20T20:55:11.383Z,101728.63
2023-04-20T20:57:39.893Z,101735.69
2023-04-20T21:00:12.495Z,101742.20
2023-04-20T21:02:42.429Z,101744.66
2023-04-20T21:05:11.092Z,101749.56
2023-04-20T21:07:39.483Z,101754.81
2023-04-20T21:10:08.034Z,101756.91
2023-04-20T21:12:36.876Z,101762.86
2023-04-20T21:15:05.640Z,101766.20
2023-04-20T21:17:34.316Z,101770.24
2023-04-20T21:20:05.856Z,101767.96
2023-04-20T21:22:34.897Z,101774.82
2023-04-20T21:25:03.928Z,101774.98
2023-04-20T21:27:32.838Z,101780.23
2023-04-20T21:30:01.062Z,101781.83
2023-04-20T21:32:29.398Z,101777.80
2023-04-20T21:34:57.587Z,101780.44
2023-04-20T21:37:25.969Z,101781.66
2023-04-20T21:39:54.234Z,101784.30
2023-04-20T21:42:22.556Z,101783.80
2023-04-20T21:44:50.856Z,101781.55
2023-04-20T21:47:19.144Z,101783.46
2023-04-20T21:49:47.385Z,101785.39
2023-04-20T21:52:15.822Z,101783.29
2023-04-20T21:54:44.045Z,101785.07
2023-04-20T21:57:12.321Z,101786.98
2023-04-20T21:59:40.649Z,101788.38
2023-04-20T22:02:09.187Z,101795.73
2023-04-20T22:04:37.657Z,101795.73
2023-04-20T22:07:06.152Z,101798.18
2023-04-20T22:09:34.410Z,101799.77
2023-04-20T22:12:03.448Z,101795.02
2023-04-20T22:14:31.941Z,101801.37
2023-04-20T22:17:02.090Z,101802.80
2023-04-20T22:19:30.433Z,101802.30
2023-04-20T22:21:58.680Z,101807.08
2023-04-20T22:24:26.909Z,101810.26
2023-04-20T22:26:55.117Z,101811.51
2023-04-20T22:29:23.587Z,101814.48
2023-04-20T22:31:51.850Z,101818.16
2023-04-20T22:34:20.103Z,101821.15
2023-04-20T22:36:48.315Z,101823.43
2023-04-20T22:39:16.705Z,101826.80
2023-04-20T22:41:45.217Z,101826.95
2023-04-20T22:44:13.507Z,101830.64
2023-04-20T22:46:41.793Z,101835.02
2023-04-20T22:49:10.348Z,101840.46
2023-04-20T22:51:38.612Z,101844.31
2023-04-20T22:54:06.844Z,101848.52
2023-04-20T22:56:35.494Z,101852.02
2023-04-20T22:59:03.786Z,101853.59
2023-04-20T23:01:33.073Z,101855.89
2023-04-20T23:04:01.593Z,101858.54
2023-04-20T23:06:31.782Z,101859.77
2023-04-20T23:09:00.678Z,101863.30
2023-04-20T23:11:29.474Z,101859.45
2023-04-20T23:13:57.750Z,101859.10
2023-04-20T23:16:28.224Z,101860.55
2023-04-20T23:18:56.459Z,101861.27
2023-04-20T23:21:24.682Z,101863.05
2023-04-20T23:23:53.111Z,101862.71
2023-04-20T23:26:21.498Z,101863.77
2023-04-20T23:28:53.289Z,101873.75
2023-04-20T23:31:21.601Z,101876.71
2023-04-20T23:33:49.979Z,101874.80
2023-04-20T23:36:18.233Z,101878.67
2023-04-20T23:38:46.472Z,101881.86
2023-04-20T23:41:15.215Z,101873.46
2023-04-20T23:43:43.490Z,101877.68
2023-04-20T23:46:12.870Z,101877.16
2023-04-20T23:48:41.364Z,101879.80
2023-04-20T23:51:09.562Z,101879.29
2023-04-20T23:53:39.315Z,101877.02
2023-04-20T23:56:07.942Z,101878.27
2023-04-20T23:58:37.215Z,101874.79
